Lambertville, MI

4:09 AM EST on November 18, 2019 (GMT -0500)
Lambertville

Weather History for KDUH - October, 2019

Change the Weather History Date:

Saturday, October 12, 2019

  Actual Average (WUND) Record (WUND)
Temperature  
Mean Temperature 46 °F -  
Max Temperature 53 °F - - (-1)
Min Temperature 38 °F - - (-1)
Degree Days  
Heating Degree Days 20    
Moisture  
Dew Point 33 °F    
Average Humidity 62    
Maximum Humidity 90    
Minimum Humidity 33    
Precipitation  
Precipitation 0.00 in - - ()
Sea Level Pressure  
Sea Level Pressure 30.03 in    
Wind  
Wind Speed 8 mph ()    
Max Wind Speed 15 mph    
Max Gust Speed 23 mph    
Visibility 9.7 miles    
Events Rain    
Averages and records for this station are not official NWS values.
T = Trace of Precipitation, MM = Missing Value Source: Averaged Metar Reports

Daily Weather History Graph

Daily Weather History Graph

Search for Another Location

Airport or City:

Astronomy

Oct. 12, 2019 Rise Set
Actual Time 7:43 AM EDT 6:58 PM EDT
Civil Twilight 7:15 AM EDT 7:26 PM EDT
Nautical Twilight 6:43 AM EDT 7:58 PM EDT
Astronomical Twilight 6:10 AM EDT 8:30 PM EDT
Moon 6:55 PM EDT (10/12) 6:17 AM EDT (10/12)
Length of Visible Light 12h 10m
Length of Day
11h 15m
Waxing Gibbous, 99% of the Moon is Illuminated
Oct 12
Waxing Gibbous
Oct 13
Full
Oct 21
Last Quarter
Oct 27
New
Nov 4
First Quarter

Hourly Weather History & Observations

Time (EDT) Temp. Windchill Dew Point Humidity Pressure Visibility Wind Dir Wind Speed Gust Speed Precip Events Conditions
12:16 AM 50.7 °F - 47.8 °F 90% 29.96 in 4.0 mi West 12.7 mph 21.9 mph N/A Rain Rain
12:35 AM 49.3 °F - 45.3 °F 86% 29.97 in 5.0 mi West 10.4 mph 23.0 mph N/A Rain Light Rain
12:36 AM 49.1 °F - 45.1 °F 86% 29.97 in 5.0 mi West 12.7 mph 23.0 mph N/A Rain Light Rain
12:55 AM 47.5 °F - 43.2 °F 85% 29.98 in 7.0 mi West 11.5 mph 21.9 mph N/A Rain Light Rain
1:19 AM 46.9 °F - 43.0 °F 86% 29.98 in 10.0 mi West 9.2 mph 16.1 mph N/A Rain Light Rain
1:37 AM 47.3 °F - 43.7 °F 87% 29.98 in 10.0 mi West 8.1 mph - N/A Rain Light Rain
1:55 AM 47.3 °F - 43.9 °F 88% 29.98 in 7.0 mi West 5.8 mph - N/A   Drizzle
1:56 AM 47.3 °F - 43.9 °F 88% 29.98 in 7.0 mi West 6.9 mph - N/A   Drizzle
2:15 AM 47.3 °F - 44.1 °F 88% 29.98 in 10.0 mi West 5.8 mph - N/A Rain Light Rain
2:16 AM 47.3 °F - 44.1 °F 88% 29.98 in 10.0 mi West 6.9 mph - N/A Rain Light Rain
2:35 AM 47.5 °F - 44.2 °F 89% 29.98 in 10.0 mi West 8.1 mph - N/A Rain Light Rain
2:58 AM 47.7 °F - 44.1 °F 87% 29.99 in 10.0 mi WSW 6.9 mph - N/A   Overcast
3:16 AM 47.3 °F - 42.8 °F 84% 29.98 in 10.0 mi West 10.4 mph 18.4 mph N/A   Overcast
3:35 AM 46.4 °F 42.9 °F 41.9 °F 84% 29.98 in 10.0 mi WSW 6.9 mph - N/A   Overcast
3:36 AM 46.4 °F 42.4 °F 41.9 °F 84% 29.98 in 10.0 mi WSW 8.1 mph - N/A   Overcast
3:55 AM 45.3 °F 41.6 °F 40.1 °F 82% 29.99 in 10.0 mi West 6.9 mph - N/A   Overcast
3:56 AM 45.3 °F 41.6 °F 40.1 °F 82% 29.99 in 10.0 mi West 6.9 mph - N/A   Mostly Cloudy
4:19 AM 44.2 °F 40.3 °F 37.9 °F 79% 30.00 in 10.0 mi West 6.9 mph - N/A   Scattered Clouds
4:37 AM 43.7 °F 41.1 °F 38.3 °F 81% 30.00 in 10.0 mi West 4.6 mph - N/A   Clear
4:55 AM 43.3 °F 41.7 °F 38.3 °F 82% 30.00 in 10.0 mi West 3.5 mph - N/A   Clear
5:15 AM 43.0 °F - 39.0 °F 86% 30.00 in 10.0 mi Calm Calm - N/A   Mostly Cloudy
5:16 AM 43.2 °F 41.5 °F 39.0 °F 85% 30.00 in 10.0 mi WSW 3.5 mph - N/A   Mostly Cloudy
5:35 AM 43.7 °F 39.1 °F 35.6 °F 73% 30.02 in 10.0 mi West 8.1 mph - N/A   Scattered Clouds
5:58 AM 41.9 °F 38.2 °F 33.8 °F 73% 30.03 in 10.0 mi WSW 5.8 mph - N/A   Clear
6:16 AM 41.0 °F 36.4 °F 35.6 °F 81% 30.03 in 10.0 mi SW 6.9 mph - N/A   Clear
6:35 AM 40.5 °F 35.1 °F 35.2 °F 82% 30.03 in 10.0 mi WSW 8.1 mph - N/A   Clear
6:36 AM 40.5 °F 35.8 °F 35.2 °F 82% 30.03 in 10.0 mi WSW 6.9 mph - N/A   Clear
6:55 AM 39.7 °F 33.7 °F 34.2 °F 80% 30.04 in 10.0 mi SW 9.2 mph - N/A   Clear
7:19 AM 39.2 °F 35.9 °F 33.3 °F 79% 30.05 in 10.0 mi SW 4.6 mph - N/A   Clear
7:37 AM 38.8 °F 33.8 °F 32.9 °F 79% 30.06 in 10.0 mi WSW 6.9 mph - N/A   Clear
7:55 AM 38.7 °F 33.6 °F 32.4 °F 78% 30.06 in 10.0 mi SW 6.9 mph - N/A   Clear
7:56 AM 38.7 °F 33.6 °F 32.2 °F 78% 30.06 in 10.0 mi WSW 6.9 mph - N/A   Clear
8:15 AM 38.8 °F 34.6 °F 32.2 °F 77% 30.07 in 10.0 mi SW 5.8 mph - N/A   Clear
8:16 AM 38.8 °F 34.6 °F 32.2 °F 77% 30.07 in 10.0 mi WSW 5.8 mph - N/A   Clear
8:35 AM 39.4 °F 32.7 °F 32.0 °F 75% 30.07 in 10.0 mi WSW 10.4 mph - N/A   Clear
8:40 AM 39.7 °F 34.9 °F 32.0 °F 74% 30.08 in 10.0 mi WSW 6.9 mph - N/A   Clear
8:58 AM 40.5 °F 35.8 °F 32.2 °F 72% 30.08 in 10.0 mi WSW 6.9 mph - N/A   Clear
9:16 AM 41.5 °F 36.4 °F 32.2 °F 69% 30.09 in 10.0 mi WSW 8.1 mph - N/A   Clear
9:35 AM 42.4 °F 37.0 °F 32.0 °F 67% 30.09 in 10.0 mi WSW 9.2 mph - N/A   Clear
9:36 AM 42.4 °F 36.5 °F 32.0 °F 67% 30.09 in 10.0 mi West 10.4 mph - N/A   Clear
9:55 AM 43.3 °F 38.1 °F 31.3 °F 62% 30.09 in 10.0 mi WSW 9.2 mph 16.1 mph N/A   Clear
9:56 AM 43.3 °F 38.1 °F 31.1 °F 62% 30.09 in 10.0 mi WSW 9.2 mph 16.1 mph N/A   Clear
10:19 AM 44.2 °F 38.4 °F 30.2 °F 58% 30.09 in 10.0 mi West 11.5 mph 17.3 mph N/A   Clear
10:37 AM 44.8 °F 39.9 °F 29.8 °F 56% 30.09 in 10.0 mi SW 9.2 mph 17.3 mph N/A   Scattered Clouds
10:55 AM 45.5 °F 38.9 °F 29.7 °F 54% 30.09 in 10.0 mi West 15.0 mph 20.7 mph N/A   Scattered Clouds
10:56 AM 45.5 °F 39.9 °F 29.5 °F 54% 30.09 in 10.0 mi West 11.5 mph 20.7 mph N/A   Scattered Clouds
11:15 AM 45.5 °F 39.9 °F 29.1 °F 53% 30.09 in 10.0 mi West 11.5 mph 20.7 mph N/A   Scattered Clouds
11:16 AM 45.5 °F 39.2 °F 28.9 °F 52% 30.08 in 10.0 mi West 13.8 mph 18.4 mph N/A   Scattered Clouds
11:35 AM 46.2 °F 40.5 °F 29.3 °F 52% 30.09 in 10.0 mi West 12.7 mph 18.4 mph N/A   Scattered Clouds
11:58 AM 46.4 °F 43.5 °F 29.7 °F 52% 30.08 in 10.0 mi WSW 5.8 mph 18.4 mph N/A   Scattered Clouds
12:16 PM 46.9 °F - 29.1 °F 50% 30.08 in 10.0 mi WSW 10.4 mph 23.0 mph N/A   Scattered Clouds
12:35 PM 48.0 °F - 28.6 °F 47% 30.08 in 10.0 mi WSW 12.7 mph 19.6 mph N/A   Clear
12:36 PM 48.0 °F - 28.6 °F 47% 30.08 in 10.0 mi WSW 10.4 mph 19.6 mph N/A   Clear
12:55 PM 48.6 °F - 29.3 °F 47% 30.08 in 10.0 mi West 11.5 mph 21.9 mph N/A   Clear
12:56 PM 48.7 °F - 29.1 °F 47% 30.08 in 10.0 mi WSW 10.4 mph 21.9 mph N/A   Clear
1:19 PM 49.1 °F - 29.8 °F 47% 30.07 in 10.0 mi SW 10.4 mph 20.7 mph N/A   Clear
1:37 PM 50.2 °F - 29.5 °F 45% 30.07 in 10.0 mi SW 11.5 mph 19.6 mph N/A   Scattered Clouds
1:55 PM 50.2 °F - 29.7 °F 45% 30.06 in 10.0 mi SW 15.0 mph 21.9 mph N/A   Scattered Clouds
1:56 PM 50.2 °F - 29.3 °F 45% 30.06 in 10.0 mi SW 11.5 mph 21.9 mph N/A   Scattered Clouds
2:15 PM 50.9 °F - 28.9 °F 43% 30.05 in 10.0 mi West 12.7 mph 20.7 mph N/A   Scattered Clouds
2:16 PM 50.9 °F - 28.8 °F 43% 30.05 in 10.0 mi WSW 15.0 mph 20.7 mph N/A   Scattered Clouds
2:35 PM 51.1 °F - 28.2 °F 41% 30.04 in 10.0 mi WSW 9.2 mph 20.7 mph N/A   Clear
2:40 PM 51.4 °F - 28.0 °F 40% 30.04 in 10.0 mi WSW 10.4 mph 23.0 mph N/A   Clear
2:58 PM 51.8 °F - 27.0 °F 38% 30.03 in 10.0 mi SW 10.4 mph 19.6 mph N/A   Clear
3:16 PM 52.2 °F - 27.0 °F 38% 30.03 in 10.0 mi WSW 8.1 mph 18.4 mph N/A   Clear
3:35 PM 52.3 °F - 26.8 °F 37% 30.03 in 10.0 mi SW 10.4 mph 19.6 mph N/A   Clear
3:55 PM 52.5 °F - 27.0 °F 37% 30.02 in 10.0 mi SW 6.9 mph 16.1 mph N/A   Clear
4:19 PM 53.4 °F - 26.8 °F 36% 30.02 in 10.0 mi SW 9.2 mph 17.3 mph N/A   Clear
4:37 PM 53.2 °F - 25.0 °F 33% 30.02 in 10.0 mi SW 10.4 mph 21.9 mph N/A   Clear
4:55 PM 53.1 °F - 25.2 °F 34% 30.02 in 10.0 mi SW 6.9 mph 16.1 mph N/A   Clear
4:56 PM 53.1 °F - 25.3 °F 34% 30.02 in 10.0 mi SSW 9.2 mph 16.1 mph N/A   Clear
5:15 PM 52.9 °F - 24.8 °F 34% 30.02 in 10.0 mi SW 10.4 mph 18.4 mph N/A   Clear
5:35 PM 52.9 °F - 25.5 °F 35% 30.01 in 10.0 mi SW 8.1 mph 17.3 mph N/A   Clear
5:58 PM 52.7 °F - 26.2 °F 36% 30.01 in 10.0 mi SSW 6.9 mph - N/A   Clear
6:16 PM 51.8 °F - 26.6 °F 38% 30.00 in 10.0 mi South 5.8 mph - N/A   Clear
6:35 PM 50.9 °F - 27.1 °F 40% 30.00 in 10.0 mi SSW 6.9 mph - N/A   Clear
6:36 PM 50.9 °F - 27.3 °F 40% 30.00 in 10.0 mi SSW 6.9 mph - N/A   Clear
6:55 PM 49.8 °F - 27.9 °F 43% 30.00 in 10.0 mi SSW 5.8 mph - N/A   Clear
7:19 PM 48.0 °F - 29.7 °F 49% 29.99 in 10.0 mi South 3.5 mph - N/A   Clear
7:37 PM 47.7 °F - 29.8 °F 50% 29.99 in 10.0 mi South 3.5 mph - N/A   Clear
7:55 PM 46.8 °F - 30.7 °F 54% 29.99 in 10.0 mi South 3.5 mph - N/A   Clear
7:56 PM 46.6 °F - 30.9 °F 54% 29.99 in 10.0 mi SSE 3.5 mph - N/A   Clear
8:15 PM 46.2 °F 45.0 °F 31.1 °F 56% 29.99 in 10.0 mi South 3.5 mph - N/A   Clear
8:16 PM 46.4 °F 45.2 °F 31.1 °F 55% 29.99 in 10.0 mi South 3.5 mph - N/A   Clear
8:35 PM 46.4 °F 45.2 °F 31.1 °F 55% 29.99 in 10.0 mi South 3.5 mph - N/A   Clear
8:58 PM 46.4 °F 44.3 °F 31.1 °F 55% 29.99 in 10.0 mi South 4.6 mph - N/A   Clear
9:16 PM 46.6 °F - 31.1 °F 55% 29.99 in 10.0 mi South 4.6 mph - N/A   Clear
9:35 PM 46.4 °F 43.5 °F 31.3 °F 56% 29.99 in 10.0 mi South 5.8 mph - N/A   Clear
9:36 PM 46.4 °F 43.5 °F 31.3 °F 56% 29.99 in 10.0 mi South 5.8 mph - N/A   Clear
9:55 PM 46.4 °F 44.3 °F 31.3 °F 56% 29.99 in 10.0 mi SSW 4.6 mph - N/A   Clear
9:56 PM 46.4 °F 44.3 °F 31.3 °F 56% 29.99 in 10.0 mi SSW 4.6 mph - N/A   Clear
10:19 PM 46.4 °F 44.3 °F 31.3 °F 56% 29.99 in 10.0 mi SSW 4.6 mph - N/A   Clear
10:37 PM 46.4 °F 43.5 °F 31.1 °F 55% 29.99 in 10.0 mi SSW 5.8 mph - N/A   Clear
10:56 PM 46.9 °F - 30.9 °F 54% 29.98 in 10.0 mi South 8.1 mph - N/A   Clear
11:15 PM 47.1 °F - 30.9 °F 53% 29.99 in 10.0 mi South 6.9 mph - N/A   Clear
11:35 PM 47.3 °F - 31.1 °F 53% 29.98 in 10.0 mi South 5.8 mph - N/A   Clear
11:58 PM 46.8 °F - 31.1 °F 55% 29.98 in 10.0 mi SSW 9.2 mph - N/A   Clear